createdAt,value
2019-02-18T00:01:26.367Z,109.60
2019-02-18T00:03:57.536Z,124.40
2019-02-18T00:06:28.640Z,112.57
2019-02-18T00:08:59.733Z,142.60
2019-02-18T00:11:30.841Z,132.63
2019-02-18T00:14:01.981Z,124.50
2019-02-18T00:16:33.125Z,113.43
2019-02-18T00:19:04.240Z,130.43
2019-02-18T00:21:35.325Z,116.13
2019-02-18T00:24:06.412Z,106.67
2019-02-18T00:26:37.496Z,113.77
2019-02-18T00:29:08.615Z,118.43
2019-02-18T00:31:39.678Z,117.33
2019-02-18T00:34:10.804Z,116.10
2019-02-18T00:36:41.901Z,119.43
2019-02-18T00:39:13.042Z,128.23
2019-02-18T00:41:44.103Z,132.77
2019-02-18T00:44:15.171Z,123.33
2019-02-18T00:46:46.238Z,118.83
2019-02-18T00:49:17.368Z,131.90
2019-02-18T00:51:48.400Z,118.20
2019-02-18T00:54:19.531Z,116.77
2019-02-18T00:56:50.589Z,135.10
2019-02-18T00:59:21.711Z,131.20
2019-02-18T01:01:52.793Z,126.60
2019-02-18T01:04:23.890Z,116.83
2019-02-18T01:06:54.955Z,130.87
2019-02-18T01:09:26.064Z,124.50
2019-02-18T01:11:57.158Z,128.00
2019-02-18T01:14:28.231Z,109.20
2019-02-18T01:16:59.269Z,117.67
2019-02-18T01:19:30.356Z,121.40
2019-02-18T01:22:01.484Z,111.87
2019-02-18T01:24:32.543Z,122.10
2019-02-18T01:27:03.613Z,113.10
2019-02-18T01:29:35.743Z,122.40
2019-02-18T01:32:06.838Z,127.23
2019-02-18T01:34:37.962Z,107.10
2019-02-18T01:37:09.121Z,114.43
2019-02-18T01:39:40.215Z,129.80
2019-02-18T01:42:11.280Z,121.80
2019-02-18T01:44:42.339Z,107.73
2019-02-18T01:47:13.499Z,119.70
2019-02-18T01:49:44.607Z,109.40
2019-02-18T01:52:15.666Z,123.00
2019-02-18T01:54:46.767Z,124.57
2019-02-18T01:57:17.875Z,116.43
2019-02-18T01:59:48.923Z,117.90
2019-02-18T02:02:20.006Z,120.40
2019-02-18T02:04:52.159Z,115.17
2019-02-18T02:07:23.211Z,109.07
2019-02-18T02:09:54.324Z,122.20
2019-02-18T02:12:25.754Z,125.60
2019-02-18T02:14:56.832Z,115.77
2019-02-18T02:17:27.933Z,128.80
2019-02-18T02:19:59.308Z,128.13
2019-02-18T02:22:30.385Z,119.70
2019-02-18T02:25:01.449Z,113.60
2019-02-18T02:27:32.610Z,116.53
2019-02-18T02:30:03.896Z,108.97
2019-02-18T02:32:35.000Z,121.10
2019-02-18T02:35:06.135Z,119.37
2019-02-18T02:37:37.293Z,118.43
2019-02-18T02:40:09.201Z,107.97
2019-02-18T02:42:40.309Z,115.97
2019-02-18T02:45:11.516Z,127.87
2019-02-18T02:47:42.628Z,127.70
2019-02-18T02:50:13.939Z,104.67
2019-02-18T02:52:45.007Z,121.83
2019-02-18T02:55:16.163Z,112.40
2019-02-18T02:57:47.261Z,121.33
2019-02-18T03:00:18.381Z,118.23
2019-02-18T03:02:49.484Z,111.23
2019-02-18T03:05:21.002Z,118.73
2019-02-18T03:07:52.053Z,114.70
2019-02-18T03:10:23.234Z,117.53
2019-02-18T03:12:54.306Z,109.07
2019-02-18T03:15:25.399Z,114.00
2019-02-18T03:17:56.491Z,114.83
2019-02-18T03:20:27.566Z,113.50
2019-02-18T03:22:58.681Z,116.40
2019-02-18T03:25:30.458Z,135.83
2019-02-18T03:28:18.267Z,123.13
2019-02-18T03:31:05.240Z,132.60
2019-02-18T03:33:43.261Z,142.53
2019-02-18T03:36:14.340Z,150.93
2019-02-18T03:38:46.495Z,131.40
2019-02-18T03:41:17.566Z,125.47
2019-02-18T03:43:48.627Z,125.00
2019-02-18T03:46:19.726Z,123.33
2019-02-18T03:48:50.818Z,113.73
2019-02-18T03:51:21.878Z,131.73
2019-02-18T03:53:53.050Z,134.37
2019-02-18T03:56:24.107Z,131.80
2019-02-18T03:58:55.210Z,117.83
2019-02-18T04:01:26.331Z,108.30
2019-02-18T04:03:57.433Z,115.60
2019-02-18T04:06:28.515Z,105.23
2019-02-18T04:08:59.622Z,107.00
2019-02-18T04:11:30.860Z,100.37
2019-02-18T04:14:02.073Z,98.80
2019-02-18T04:16:33.209Z,101.03
2019-02-18T04:19:04.288Z,104.97
2019-02-18T04:21:35.414Z,104.20
2019-02-18T04:24:06.479Z,113.87
2019-02-18T04:26:40.710Z,104.27
2019-02-18T04:29:11.894Z,105.70
2019-02-18T04:31:42.988Z,98.57
2019-02-18T04:34:14.041Z,95.07
2019-02-18T04:36:46.132Z,109.23
2019-02-18T04:39:17.216Z,115.20
2019-02-18T04:41:48.290Z,94.50
2019-02-18T04:44:19.389Z,117.07
2019-02-18T04:46:50.435Z,102.87
2019-02-18T04:49:21.644Z,118.73
2019-02-18T04:51:52.698Z,109.60
2019-02-18T04:54:23.810Z,113.73
2019-02-18T04:56:54.935Z,115.57
2019-02-18T04:59:26.012Z,103.23
2019-02-18T05:01:57.115Z,113.03
2019-02-18T05:04:28.219Z,99.43
2019-02-18T05:06:59.370Z,107.90
2019-02-18T05:09:30.376Z,110.23
2019-02-18T05:12:01.472Z,113.47
2019-02-18T05:14:32.646Z,101.37
2019-02-18T05:17:03.651Z,100.97
2019-02-18T05:19:34.731Z,94.90
2019-02-18T05:22:05.859Z,106.23
2019-02-18T05:24:36.970Z,100.70
2019-02-18T05:27:08.044Z,94.03
2019-02-18T05:29:39.171Z,101.53
2019-02-18T05:32:10.217Z,108.83
2019-02-18T05:34:41.331Z,100.77
2019-02-18T05:37:12.438Z,101.13
2019-02-18T05:39:43.541Z,105.17
2019-02-18T05:42:15.203Z,101.23
2019-02-18T05:44:46.818Z,100.27
2019-02-18T05:47:18.028Z,98.63
2019-02-18T05:49:49.334Z,94.37
2019-02-18T05:52:20.390Z,95.63
2019-02-18T05:54:51.558Z,110.83
2019-02-18T05:57:23.007Z,92.23
2019-02-18T05:59:54.324Z,100.23
2019-02-18T06:02:25.585Z,109.50
2019-02-18T06:04:56.645Z,108.33
2019-02-18T06:07:27.890Z,99.63
2019-02-18T06:09:58.932Z,103.80
2019-02-18T06:12:30.025Z,101.67
2019-02-18T06:15:02.173Z,106.10
2019-02-18T06:17:33.346Z,110.37
2019-02-18T06:20:07.737Z,112.53
2019-02-18T06:22:39.877Z,112.93
2019-02-18T06:25:10.978Z,112.23
2019-02-18T06:27:42.068Z,110.50
2019-02-18T06:30:13.147Z,117.97
2019-02-18T06:32:44.216Z,123.53
2019-02-18T06:35:15.330Z,132.57
2019-02-18T06:37:46.393Z,132.87
2019-02-18T06:40:17.556Z,122.17
2019-02-18T06:42:48.676Z,126.53
2019-02-18T06:45:38.637Z,129.77
2019-02-18T06:48:31.887Z,130.00
2019-02-18T06:51:02.982Z,132.97
2019-02-18T06:53:34.065Z,133.37
2019-02-18T06:56:06.300Z,123.20
2019-02-18T06:58:50.123Z,129.63
2019-02-18T07:01:29.758Z,128.07
2019-02-18T07:04:22.839Z,125.20
2019-02-18T07:07:03.003Z,120.37
2019-02-18T07:09:52.958Z,124.03
2019-02-18T07:12:27.572Z,128.60
2019-02-18T07:14:58.704Z,127.83
2019-02-18T07:17:29.797Z,130.43
2019-02-18T07:20:00.839Z,120.80
2019-02-18T07:22:33.087Z,125.40
2019-02-18T07:25:04.231Z,127.93
2019-02-18T07:27:35.342Z,123.30
2019-02-18T07:30:08.374Z,122.77
2019-02-18T07:32:39.493Z,124.67
2019-02-18T07:35:10.763Z,131.13
2019-02-18T07:37:42.002Z,140.63
2019-02-18T07:40:13.725Z,131.50
2019-02-18T07:42:44.838Z,139.30
2019-02-18T07:45:15.935Z,147.93
2019-02-18T07:47:47.009Z,151.47
2019-02-18T07:50:20.663Z,155.30
2019-02-18T07:52:50.951Z,156.67
2019-02-18T07:55:22.019Z,166.93
2019-02-18T07:57:53.139Z,164.83
2019-02-18T08:00:24.188Z,182.77
2019-02-18T08:02:55.333Z,181.10
2019-02-18T08:05:26.386Z,176.50
2019-02-18T08:07:57.511Z,171.67
2019-02-18T08:10:28.593Z,161.50
2019-02-18T08:12:59.679Z,157.13
2019-02-18T08:15:30.810Z,162.47
2019-02-18T08:18:01.883Z,151.97
2019-02-18T08:20:32.993Z,147.87
2019-02-18T08:23:04.048Z,152.77
2019-02-18T08:25:35.111Z,151.53
2019-02-18T08:28:06.203Z,148.87
2019-02-18T08:30:37.228Z,147.73
2019-02-18T08:33:08.326Z,144.07
2019-02-18T08:35:39.454Z,142.87
2019-02-18T08:38:10.531Z,140.10
2019-02-18T08:40:41.578Z,130.27
2019-02-18T08:43:12.793Z,140.23
2019-02-18T08:45:44.006Z,141.70
2019-02-18T08:48:15.108Z,136.90
2019-02-18T08:50:46.181Z,136.60
2019-02-18T08:53:17.327Z,135.10
2019-02-18T08:55:48.688Z,126.67
2019-02-18T08:58:19.773Z,133.10
2019-02-18T09:00:50.901Z,136.17
2019-02-18T09:03:22.074Z,138.03
2019-02-18T09:05:53.135Z,119.60
2019-02-18T09:08:24.200Z,124.47
2019-02-18T09:10:55.341Z,127.50
2019-02-18T09:13:26.405Z,127.50
2019-02-18T09:16:00.059Z,119.33
2019-02-18T09:18:30.391Z,121.20
2019-02-18T09:21:01.483Z,128.37
2019-02-18T09:23:50.202Z,132.23
2019-02-18T09:26:21.322Z,121.83
2019-02-18T09:28:52.355Z,125.97
2019-02-18T09:31:28.286Z,117.40
2019-02-18T09:33:59.452Z,115.53
2019-02-18T09:36:30.533Z,112.57
2019-02-18T09:39:01.669Z,109.97
2019-02-18T09:41:33.889Z,100.60
2019-02-18T09:44:05.144Z,96.87
2019-02-18T09:46:36.283Z,96.80
2019-02-18T09:49:07.611Z,98.80
2019-02-18T09:51:38.743Z,106.00
2019-02-18T09:54:10.030Z,99.60
2019-02-18T09:56:41.277Z,98.33
2019-02-18T09:59:12.355Z,101.10
2019-02-18T10:01:43.436Z,97.87
2019-02-18T10:04:14.514Z,101.47
2019-02-18T10:06:45.700Z,100.23
2019-02-18T10:09:18.014Z,92.33
2019-02-18T10:11:49.298Z,92.37
2019-02-18T10:14:20.730Z,89.60
2019-02-18T10:16:52.029Z,88.23
2019-02-18T10:19:23.247Z,95.17
2019-02-18T10:21:54.525Z,90.67
2019-02-18T10:24:25.658Z,105.17
2019-02-18T10:26:56.762Z,105.67
2019-02-18T10:29:27.951Z,99.73
2019-02-18T10:31:59.112Z,103.20
2019-02-18T10:34:31.324Z,91.20
2019-02-18T10:37:02.530Z,85.73
2019-02-18T10:39:33.602Z,88.00
2019-02-18T10:42:04.868Z,85.37
2019-02-18T10:44:36.204Z,85.17
2019-02-18T10:47:07.408Z,82.23
2019-02-18T10:49:38.679Z,74.70
2019-02-18T10:52:09.921Z,75.40
2019-02-18T10:54:40.996Z,64.07
2019-02-18T10:57:12.129Z,65.23
2019-02-18T10:59:43.312Z,71.20
2019-02-18T11:02:14.833Z,62.00
2019-02-18T11:04:46.025Z,63.60
2019-02-18T11:07:17.189Z,67.73
2019-02-18T11:09:48.270Z,63.67
2019-02-18T11:12:19.388Z,59.63
2019-02-18T11:14:50.531Z,64.63
2019-02-18T11:17:21.744Z,61.40
2019-02-18T11:19:52.840Z,58.97
2019-02-18T11:22:24.035Z,53.83
2019-02-18T11:24:55.191Z,56.50
2019-02-18T11:27:26.323Z,57.97
2019-02-18T11:29:57.404Z,59.57
2019-02-18T11:32:28.554Z,53.80
2019-02-18T11:35:00.640Z,58.80
2019-02-18T11:37:32.021Z,56.87
2019-02-18T11:40:03.171Z,56.97
2019-02-18T11:42:34.254Z,58.40
2019-02-18T11:45:05.567Z,64.97
2019-02-18T11:47:36.733Z,60.90
2019-02-18T11:50:08.685Z,64.23
2019-02-18T11:52:41.084Z,63.00
2019-02-18T11:55:12.374Z,59.90
2019-02-18T11:57:44.016Z,64.07
2019-02-18T12:00:15.406Z,61.33
2019-02-18T12:02:46.578Z,65.70
2019-02-18T12:05:17.741Z,64.07
2019-02-18T12:07:48.913Z,62.73
2019-02-18T12:10:21.047Z,61.80
2019-02-18T12:12:55.736Z,54.23
2019-02-18T12:15:28.093Z,53.57
2019-02-18T12:17:59.139Z,52.53
2019-02-18T12:20:30.255Z,53.13
2019-02-18T12:23:01.423Z,54.77
2019-02-18T12:25:32.499Z,54.67
2019-02-18T12:28:03.592Z,51.00
2019-02-18T12:30:34.759Z,49.50
2019-02-18T12:33:05.828Z,43.57
2019-02-18T12:35:37.006Z,28.50
2019-02-18T12:38:08.211Z,32.07
2019-02-18T12:40:39.474Z,37.13
2019-02-18T12:43:12.206Z,36.73
2019-02-18T12:45:43.440Z,32.30
2019-02-18T12:48:14.515Z,32.23
2019-02-18T12:50:45.637Z,30.20
2019-02-18T12:53:16.987Z,38.63
2019-02-18T12:55:48.275Z,32.00
2019-02-18T12:58:19.436Z,32.43
2019-02-18T13:00:50.708Z,34.63
2019-02-18T13:03:22.188Z,28.87
2019-02-18T13:05:53.662Z,29.60
2019-02-18T13:08:25.158Z,31.90
2019-02-18T13:10:56.712Z,28.90
2019-02-18T13:13:28.239Z,35.73
2019-02-18T13:15:59.855Z,33.20
2019-02-18T13:18:31.489Z,33.60
2019-02-18T13:21:02.855Z,34.70
2019-02-18T13:23:34.270Z,37.08
2019-02-18T13:26:05.661Z,36.68
2019-02-18T13:28:38.402Z,36.65
2019-02-18T13:31:10.314Z,33.98
2019-02-18T13:33:42.054Z,35.20
2019-02-18T13:36:15.558Z,36.23
2019-02-18T13:38:47.310Z,32.58
2019-02-18T13:41:18.676Z,35.50
2019-02-18T13:43:50.092Z,34.05
2019-02-18T13:46:21.391Z,35.15
2019-02-18T13:48:52.576Z,34.78
2019-02-18T13:51:24.485Z,37.33
2019-02-18T13:53:55.856Z,36.75
2019-02-18T13:56:27.003Z,32.03
2019-02-18T13:58:58.225Z,41.50
2019-02-18T14:01:29.452Z,29.52
2019-02-18T14:04:01.638Z,35.25
2019-02-18T14:06:32.783Z,32.60
2019-02-18T14:09:05.643Z,29.70
2019-02-18T14:11:38.853Z,27.30
2019-02-18T14:14:10.226Z,29.72
2019-02-18T14:16:41.939Z,27.00
2019-02-18T14:19:13.643Z,31.37
2019-02-18T14:21:44.908Z,37.42
2019-02-18T14:24:16.166Z,36.80
2019-02-18T14:26:47.413Z,40.00
2019-02-18T14:29:18.640Z,36.77
2019-02-18T14:31:50.138Z,38.78
2019-02-18T14:34:21.311Z,37.28
2019-02-18T14:36:52.930Z,42.23
2019-02-18T14:39:25.996Z,38.42
2019-02-18T14:41:57.587Z,39.40
2019-02-18T14:44:29.395Z,36.38
2019-02-18T14:47:00.977Z,40.70
2019-02-18T14:49:32.151Z,39.30
2019-02-18T14:52:04.013Z,36.38
2019-02-18T14:54:35.464Z,37.25
2019-02-18T14:57:06.733Z,37.08
2019-02-18T14:59:38.167Z,34.50
2019-02-18T15:02:10.105Z,38.65
2019-02-18T15:04:41.786Z,36.60
2019-02-18T15:07:13.151Z,33.73
2019-02-18T15:09:44.475Z,32.98
2019-02-18T15:12:15.652Z,31.23
2019-02-18T15:14:46.850Z,32.17
2019-02-18T15:17:18.894Z,31.60
2019-02-18T15:19:50.156Z,32.20
2019-02-18T15:22:21.486Z,30.47
2019-02-18T15:24:52.862Z,30.63
2019-02-18T15:27:24.468Z,33.17
2019-02-18T15:29:55.706Z,30.50
2019-02-18T15:32:27.093Z,40.40
2019-02-18T15:34:58.417Z,33.37
2019-02-18T15:37:29.893Z,33.77
2019-02-18T15:40:01.328Z,34.40
2019-02-18T15:42:32.814Z,36.93
2019-02-18T15:45:04.543Z,35.47
2019-02-18T15:47:35.792Z,43.73
2019-02-18T15:50:07.496Z,33.60
2019-02-18T15:52:38.734Z,30.33
2019-02-18T15:55:10.150Z,42.77
2019-02-18T15:57:41.454Z,41.53
2019-02-18T16:00:16.439Z,34.43
2019-02-18T16:02:48.084Z,39.13
2019-02-18T16:05:19.261Z,30.67
2019-02-18T16:07:50.558Z,33.00
2019-02-18T16:10:21.688Z,36.87
2019-02-18T16:12:52.917Z,31.73
2019-02-18T16:15:24.115Z,40.30
2019-02-18T16:17:55.232Z,37.03
2019-02-18T16:20:26.431Z,40.00
2019-02-18T16:22:57.561Z,37.80
2019-02-18T16:25:28.765Z,40.43
2019-02-18T16:27:59.865Z,39.43
2019-02-18T16:30:30.977Z,37.23
2019-02-18T16:33:02.066Z,38.87
2019-02-18T16:35:33.572Z,38.20
2019-02-18T16:38:04.709Z,35.00
2019-02-18T16:40:36.243Z,36.30
2019-02-18T16:43:07.442Z,35.33
2019-02-18T16:45:38.980Z,41.07
2019-02-18T16:48:10.459Z,42.10
2019-02-18T16:50:41.553Z,40.27
2019-02-18T16:53:12.652Z,34.27
2019-02-18T16:55:43.779Z,38.63
2019-02-18T16:58:14.927Z,30.60
2019-02-18T17:00:46.089Z,34.13
2019-02-18T17:03:17.303Z,29.63
2019-02-18T17:05:48.400Z,28.33
2019-02-18T17:08:19.594Z,30.50
2019-02-18T17:10:50.787Z,30.07
2019-02-18T17:13:22.092Z,27.73
2019-02-18T17:15:53.250Z,34.93
2019-02-18T17:18:24.321Z,35.23
2019-02-18T17:20:55.759Z,28.17
2019-02-18T17:23:26.906Z,29.10
2019-02-18T17:25:58.188Z,28.10
2019-02-18T17:28:29.489Z,25.97
2019-02-18T17:31:00.618Z,31.20
2019-02-18T17:33:32.052Z,28.63
2019-02-18T17:36:03.244Z,37.80
2019-02-18T17:38:36.118Z,39.57
2019-02-18T17:41:07.255Z,36.80
2019-02-18T17:43:38.533Z,40.07
2019-02-18T17:46:10.086Z,38.53
2019-02-18T17:48:41.239Z,41.03
2019-02-18T17:51:12.438Z,41.83
2019-02-18T17:53:43.566Z,39.97
2019-02-18T17:56:14.845Z,40.97
2019-02-18T17:58:47.182Z,38.20
2019-02-18T18:01:18.408Z,37.73
2019-02-18T18:03:49.573Z,34.77
2019-02-18T18:06:20.968Z,33.87
2019-02-18T18:08:54.075Z,39.80
2019-02-18T18:11:25.473Z,35.53
2019-02-18T18:13:56.761Z,33.17
2019-02-18T18:16:28.244Z,37.93
2019-02-18T18:18:59.619Z,34.17
2019-02-18T18:21:30.840Z,32.33
2019-02-18T18:24:02.281Z,37.27
2019-02-18T18:26:33.499Z,46.77
2019-02-18T18:29:04.862Z,39.07
2019-02-18T18:31:36.164Z,42.80
2019-02-18T18:34:07.468Z,42.13
2019-02-18T18:36:38.625Z,46.27
2019-02-18T18:39:09.994Z,53.37
2019-02-18T18:41:41.388Z,50.63
2019-02-18T18:44:12.588Z,46.93
2019-02-18T18:46:44.237Z,45.33
2019-02-18T18:49:15.499Z,44.60
2019-02-18T18:51:46.846Z,41.70
2019-02-18T18:54:18.035Z,59.03
2019-02-18T18:56:49.304Z,57.87
2019-02-18T18:59:20.519Z,50.00
2019-02-18T19:01:51.995Z,55.80
2019-02-18T19:04:23.190Z,47.17
2019-02-18T19:06:54.492Z,55.53
2019-02-18T19:09:25.804Z,43.70
2019-02-18T19:11:57.861Z,42.67
2019-02-18T19:14:29.565Z,43.63
2019-02-18T19:17:01.730Z,37.90
2019-02-18T19:19:33.104Z,40.53
2019-02-18T19:22:04.375Z,41.57
2019-02-18T19:24:35.668Z,56.47
2019-02-18T19:27:07.394Z,41.77
2019-02-18T19:29:38.759Z,47.20
2019-02-18T19:32:10.699Z,43.83
2019-02-18T19:34:41.983Z,40.10
2019-02-18T19:37:13.590Z,42.43
2019-02-18T19:39:45.881Z,58.60
2019-02-18T19:42:18.513Z,67.67
2019-02-18T19:44:58.579Z,65.83
2019-02-18T19:47:30.115Z,47.67
2019-02-18T19:50:02.023Z,58.70
2019-02-18T19:52:33.388Z,51.73
2019-02-18T19:55:05.560Z,68.13
2019-02-18T19:57:38.536Z,81.07
2019-02-18T20:00:11.527Z,68.50
2019-02-18T20:02:42.863Z,73.73
2019-02-18T20:05:14.459Z,61.97
2019-02-18T20:07:45.779Z,61.23
2019-02-18T20:10:17.455Z,69.37
2019-02-18T20:12:48.690Z,71.13
2019-02-18T20:15:21.214Z,69.33
2019-02-18T20:17:55.074Z,61.57
2019-02-18T20:20:26.669Z,74.50
2019-02-18T20:23:00.111Z,74.93
2019-02-18T20:25:32.289Z,68.80
2019-02-18T20:28:03.782Z,64.70
2019-02-18T20:30:35.407Z,85.27
2019-02-18T20:33:06.728Z,90.93
2019-02-18T20:35:39.098Z,80.07
2019-02-18T20:38:10.547Z,80.90
2019-02-18T20:40:41.691Z,87.13
2019-02-18T20:43:12.936Z,88.50
2019-02-18T20:45:44.319Z,83.07
2019-02-18T20:48:15.627Z,93.23
2019-02-18T20:50:47.121Z,108.37
2019-02-18T20:53:18.359Z,103.03
2019-02-18T20:55:50.462Z,99.77
2019-02-18T20:58:21.616Z,103.70
2019-02-18T21:00:52.952Z,83.20
2019-02-18T21:03:24.941Z,96.03
2019-02-18T21:05:57.206Z,107.33
2019-02-18T21:08:30.269Z,95.10
2019-02-18T21:11:01.400Z,98.53
2019-02-18T21:13:32.745Z,100.57
2019-02-18T21:16:04.266Z,105.80
2019-02-18T21:18:35.671Z,124.17
2019-02-18T21:21:08.273Z,114.63
2019-02-18T21:23:41.516Z,108.60
2019-02-18T21:26:12.772Z,123.17
2019-02-18T21:28:44.190Z,146.40
2019-02-18T21:31:15.635Z,165.43
2019-02-18T21:33:46.890Z,169.17
2019-02-18T21:36:18.354Z,143.07
2019-02-18T21:38:49.678Z,131.43
2019-02-18T21:41:20.850Z,130.00
2019-02-18T21:43:52.222Z,124.50
2019-02-18T21:46:23.558Z,136.90
2019-02-18T21:48:55.790Z,125.07
2019-02-18T21:51:27.326Z,125.00
2019-02-18T21:53:58.881Z,114.53
2019-02-18T21:56:30.133Z,122.23
2019-02-18T21:59:01.389Z,105.40
2019-02-18T22:01:32.560Z,112.73
2019-02-18T22:04:03.645Z,125.57
2019-02-18T22:06:34.787Z,110.10
2019-02-18T22:09:15.754Z,116.87
2019-02-18T22:11:47.480Z,135.83
2019-02-18T22:14:19.185Z,137.60
2019-02-18T22:16:50.730Z,138.53
2019-02-18T22:19:21.856Z,134.00
2019-02-18T22:21:52.971Z,127.00
2019-02-18T22:24:24.077Z,132.57
2019-02-18T22:26:55.156Z,143.47
2019-02-18T22:29:26.349Z,140.53
2019-02-18T22:31:57.903Z,139.77
2019-02-18T22:34:29.176Z,134.47
2019-02-18T22:37:00.826Z,125.53
2019-02-18T22:39:54.911Z,119.97
2019-02-18T22:42:31.096Z,131.07
2019-02-18T22:45:02.391Z,149.20
2019-02-18T22:47:33.768Z,145.87
2019-02-18T22:50:05.368Z,161.20
2019-02-18T22:52:37.062Z,140.00
2019-02-18T22:55:08.877Z,144.33
2019-02-18T22:57:40.046Z,138.17
2019-02-18T23:00:43.678Z,132.63
2019-02-18T23:03:15.978Z,141.50
2019-02-18T23:05:47.203Z,135.00
2019-02-18T23:08:18.593Z,151.67
2019-02-18T23:10:49.794Z,128.87
2019-02-18T23:13:21.279Z,168.90
2019-02-18T23:15:52.400Z,154.00
2019-02-18T23:18:23.741Z,142.93
2019-02-18T23:20:54.921Z,138.10
2019-02-18T23:23:26.229Z,142.63
2019-02-18T23:25:57.410Z,139.83
2019-02-18T23:28:28.648Z,147.00
2019-02-18T23:30:59.856Z,145.10
2019-02-18T23:33:31.070Z,138.17
2019-02-18T23:36:02.244Z,138.87
2019-02-18T23:38:33.498Z,143.53
2019-02-18T23:41:04.669Z,178.90
2019-02-18T23:43:35.776Z,150.70
2019-02-18T23:46:06.900Z,190.67
2019-02-18T23:48:38.116Z,148.20
2019-02-18T23:51:09.259Z,152.97
2019-02-18T23:53:40.456Z,149.57
2019-02-18T23:56:11.809Z,141.47
2019-02-18T23:58:42.866Z,140.10
